sim
Sign-in with your pilot id or email,
or register
Callsign
Passwort

Schedule Details

Flight Number: RYR5913 (1)
Departure: Fuerteventura Airport (GCFV) at 08:50
Arrival: Seville San Pablo Airport (LEZL) at 11:05
Route: Ryanair Passenger Schedule. Enter filed route here before submitting Pirep.

Weather Information
Getting current METAR information for GCFV 211730Z 02017KT 350V050 CAVOK 27/18 Q1013
Getting current METAR information for LEZL 211730Z 21006KT 170V270 CAVOK 35/12 Q1013 NOSIG

Schedule Frequency

Route Map